sensor_id;sensor_type;location;lat;lon;timestamp;P1;durP1;ratioP1;P2;durP2;ratioP2
1400;SDS011;46518;48.842;8.926;2023-06-05T00:02:22;2.55;;;2.35;;
1400;SDS011;46518;48.842;8.926;2023-06-05T00:04:51;4.72;;;2.33;;
1400;SDS011;46518;48.842;8.926;2023-06-05T00:07:20;5.30;;;2.58;;
1400;SDS011;46518;48.842;8.926;2023-06-05T00:09:48;3.38;;;2.58;;
1400;SDS011;46518;48.842;8.926;2023-06-05T00:12:16;3.25;;;2.35;;
1400;SDS011;46518;48.842;8.926;2023-06-05T00:14:44;4.05;;;2.85;;
1400;SDS011;46518;48.842;8.926;2023-06-05T00:17:12;4.30;;;2.50;;
1400;SDS011;46518;48.842;8.926;2023-06-05T00:19:40;3.25;;;2.22;;
1400;SDS011;46518;48.842;8.926;2023-06-05T00:22:10;2.80;;;2.50;;
1400;SDS011;46518;48.842;8.926;2023-06-05T00:24:38;2.53;;;2.33;;
1400;SDS011;46518;48.842;8.926;2023-06-05T00:27:06;2.65;;;2.45;;
1400;SDS011;46518;48.842;8.926;2023-06-05T00:29:34;3.50;;;2.58;;
1400;SDS011;46518;48.842;8.926;2023-06-05T00:32:04;2.42;;;2.22;;
1400;SDS011;46518;48.842;8.926;2023-06-05T00:34:33;3.20;;;2.90;;
1400;SDS011;46518;48.842;8.926;2023-06-05T00:37:01;3.35;;;2.75;;
1400;SDS011;46518;48.842;8.926;2023-06-05T00:39:30;3.17;;;2.90;;
1400;SDS011;46518;48.842;8.926;2023-06-05T00:41:59;2.60;;;2.38;;
1400;SDS011;46518;48.842;8.926;2023-06-05T00:44:27;2.13;;;2.03;;
1400;SDS011;46518;48.842;8.926;2023-06-05T00:46:55;2.33;;;2.13;;
1400;SDS011;46518;48.842;8.926;2023-06-05T00:49:23;2.40;;;2.17;;
1400;SDS011;46518;48.842;8.926;2023-06-05T00:51:52;3.97;;;2.83;;
1400;SDS011;46518;48.842;8.926;2023-06-05T00:54:21;2.42;;;2.22;;
1400;SDS011;46518;48.842;8.926;2023-06-05T00:56:50;2.60;;;2.03;;
1400;SDS011;46518;48.842;8.926;2023-06-05T00:59:19;3.17;;;2.30;;
1400;SDS011;46518;48.842;8.926;2023-06-05T01:01:48;3.33;;;2.60;;
1400;SDS011;46518;48.842;8.926;2023-06-05T01:04:17;3.60;;;3.08;;
1400;SDS011;46518;48.842;8.926;2023-06-05T01:06:45;2.35;;;2.25;;
1400;SDS011;46518;48.842;8.926;2023-06-05T01:09:14;2.95;;;2.38;;
1400;SDS011;46518;48.842;8.926;2023-06-05T01:11:43;3.20;;;2.90;;
1400;SDS011;46518;48.842;8.926;2023-06-05T01:14:20;2.78;;;2.30;;
1400;SDS011;46518;48.842;8.926;2023-06-05T01:16:50;2.92;;;1.98;;
1400;SDS011;46518;48.842;8.926;2023-06-05T01:19:20;2.55;;;2.20;;
1400;SDS011;46518;48.842;8.926;2023-06-05T01:21:51;3.08;;;2.65;;
1400;SDS011;46518;48.842;8.926;2023-06-05T01:24:21;3.67;;;2.80;;
1400;SDS011;46518;48.842;8.926;2023-06-05T01:26:53;2.95;;;2.70;;
1400;SDS011;46518;48.842;8.926;2023-06-05T01:29:32;3.40;;;2.83;;
1400;SDS011;46518;48.842;8.926;2023-06-05T01:32:10;3.35;;;3.05;;
1400;SDS011;46518;48.842;8.926;2023-06-05T01:34:43;3.00;;;2.70;;
1400;SDS011;46518;48.842;8.926;2023-06-05T01:37:15;3.75;;;3.35;;
1400;SDS011;46518;48.842;8.926;2023-06-05T01:39:48;2.97;;;2.65;;
1400;SDS011;46518;48.842;8.926;2023-06-05T01:42:18;2.95;;;2.30;;
1400;SDS011;46518;48.842;8.926;2023-06-05T01:44:47;4.10;;;2.38;;
1400;SDS011;46518;48.842;8.926;2023-06-05T01:47:16;3.05;;;2.67;;
1400;SDS011;46518;48.842;8.926;2023-06-05T01:49:44;3.63;;;2.83;;
1400;SDS011;46518;48.842;8.926;2023-06-05T01:52:12;3.75;;;3.25;;
1400;SDS011;46518;48.842;8.926;2023-06-05T01:54:40;3.97;;;2.90;;
1400;SDS011;46518;48.842;8.926;2023-06-05T01:57:10;2.90;;;2.60;;
1400;SDS011;46518;48.842;8.926;2023-06-05T01:59:38;3.35;;;3.03;;
1400;SDS011;46518;48.842;8.926;2023-06-05T02:02:07;3.33;;;2.60;;
1400;SDS011;46518;48.842;8.926;2023-06-05T02:04:35;3.40;;;3.10;;
1400;SDS011;46518;48.842;8.926;2023-06-05T02:07:04;3.53;;;2.78;;
1400;SDS011;46518;48.842;8.926;2023-06-05T02:09:33;4.57;;;3.10;;
1400;SDS011;46518;48.842;8.926;2023-06-05T02:12:01;4.82;;;2.70;;
1400;SDS011;46518;48.842;8.926;2023-06-05T02:14:32;3.63;;;3.33;;
1400;SDS011;46518;48.842;8.926;2023-06-05T02:17:02;4.05;;;2.67;;
1400;SDS011;46518;48.842;8.926;2023-06-05T02:19:33;4.80;;;4.40;;
1400;SDS011;46518;48.842;8.926;2023-06-05T02:22:01;2.95;;;2.75;;
1400;SDS011;46518;48.842;8.926;2023-06-05T02:24:29;2.67;;;2.47;;
1400;SDS011;46518;48.842;8.926;2023-06-05T02:26:58;3.53;;;2.20;;
1400;SDS011;46518;48.842;8.926;2023-06-05T02:29:27;3.40;;;2.88;;
1400;SDS011;46518;48.842;8.926;2023-06-05T02:31:56;2.85;;;2.65;;
1400;SDS011;46518;48.842;8.926;2023-06-05T02:34:24;2.78;;;2.58;;
1400;SDS011;46518;48.842;8.926;2023-06-05T02:36:53;3.25;;;2.78;;
1400;SDS011;46518;48.842;8.926;2023-06-05T02:39:22;4.05;;;3.50;;
1400;SDS011;46518;48.842;8.926;2023-06-05T02:41:50;2.30;;;2.10;;
1400;SDS011;46518;48.842;8.926;2023-06-05T02:44:18;7.15;;;2.92;;
1400;SDS011;46518;48.842;8.926;2023-06-05T02:46:47;3.47;;;3.17;;
1400;SDS011;46518;48.842;8.926;2023-06-05T02:49:16;3.70;;;2.85;;
1400;SDS011;46518;48.842;8.926;2023-06-05T02:51:44;3.53;;;3.15;;
1400;SDS011;46518;48.842;8.926;2023-06-05T02:54:13;2.95;;;2.65;;
1400;SDS011;46518;48.842;8.926;2023-06-05T02:56:42;3.03;;;2.75;;
1400;SDS011;46518;48.842;8.926;2023-06-05T02:59:12;3.30;;;2.80;;
1400;SDS011;46518;48.842;8.926;2023-06-05T03:01:41;4.13;;;3.20;;
1400;SDS011;46518;48.842;8.926;2023-06-05T03:04:16;3.35;;;3.05;;
1400;SDS011;46518;48.842;8.926;2023-06-05T03:06:49;3.60;;;2.60;;
1400;SDS011;46518;48.842;8.926;2023-06-05T03:09:20;2.65;;;2.42;;
1400;SDS011;46518;48.842;8.926;2023-06-05T03:11:49;3.67;;;2.60;;
1400;SDS011;46518;48.842;8.926;2023-06-05T03:14:18;3.20;;;2.90;;
1400;SDS011;46518;48.842;8.926;2023-06-05T03:16:46;2.88;;;2.67;;
1400;SDS011;46518;48.842;8.926;2023-06-05T03:19:18;3.67;;;2.25;;
1400;SDS011;46518;48.842;8.926;2023-06-05T03:21:46;3.38;;;2.38;;
1400;SDS011;46518;48.842;8.926;2023-06-05T03:24:16;3.28;;;2.80;;
1400;SDS011;46518;48.842;8.926;2023-06-05T03:26:49;3.00;;;2.65;;
1400;SDS011;46518;48.842;8.926;2023-06-05T03:29:18;5.03;;;2.67;;
1400;SDS011;46518;48.842;8.926;2023-06-05T03:31:47;2.78;;;2.40;;
1400;SDS011;46518;48.842;8.926;2023-06-05T03:34:17;2.70;;;2.50;;
1400;SDS011;46518;48.842;8.926;2023-06-05T03:36:45;2.65;;;2.45;;
1400;SDS011;46518;48.842;8.926;2023-06-05T03:39:14;2.78;;;2.55;;
1400;SDS011;46518;48.842;8.926;2023-06-05T03:41:43;5.80;;;2.97;;
1400;SDS011;46518;48.842;8.926;2023-06-05T03:44:11;3.58;;;3.28;;
1400;SDS011;46518;48.842;8.926;2023-06-05T03:46:39;3.28;;;2.80;;
1400;SDS011;46518;48.842;8.926;2023-06-05T03:49:08;3.13;;;2.45;;
1400;SDS011;46518;48.842;8.926;2023-06-05T03:51:38;5.38;;;3.00;;
1400;SDS011;46518;48.842;8.926;2023-06-05T03:54:09;7.57;;;3.13;;
1400;SDS011;46518;48.842;8.926;2023-06-05T03:56:40;3.28;;;2.97;;
1400;SDS011;46518;48.842;8.926;2023-06-05T03:59:13;3.65;;;2.83;;
1400;SDS011;46518;48.842;8.926;2023-06-05T04:01:50;3.90;;;3.20;;
1400;SDS011;46518;48.842;8.926;2023-06-05T04:04:18;4.88;;;2.95;;
1400;SDS011;46518;48.842;8.926;2023-06-05T04:06:48;3.05;;;2.75;;
1400;SDS011;46518;48.842;8.926;2023-06-05T04:09:17;3.25;;;2.67;;
1400;SDS011;46518;48.842;8.926;2023-06-05T04:11:45;3.05;;;2.85;;
1400;SDS011;46518;48.842;8.926;2023-06-05T04:14:14;3.60;;;3.25;;
1400;SDS011;46518;48.842;8.926;2023-06-05T04:16:43;4.70;;;2.92;;
1400;SDS011;46518;48.842;8.926;2023-06-05T04:19:19;3.70;;;3.40;;
1400;SDS011;46518;48.842;8.926;2023-06-05T04:21:52;3.10;;;2.80;;
1400;SDS011;46518;48.842;8.926;2023-06-05T04:24:20;3.17;;;2.70;;
1400;SDS011;46518;48.842;8.926;2023-06-05T04:26:48;5.25;;;3.00;;
1400;SDS011;46518;48.842;8.926;2023-06-05T04:29:17;4.95;;;3.10;;
1400;SDS011;46518;48.842;8.926;2023-06-05T04:31:47;3.50;;;2.78;;
1400;SDS011;46518;48.842;8.926;2023-06-05T04:34:16;2.65;;;2.35;;
1400;SDS011;46518;48.842;8.926;2023-06-05T04:36:45;3.10;;;2.75;;
1400;SDS011;46518;48.842;8.926;2023-06-05T04:39:20;3.03;;;2.65;;
1400;SDS011;46518;48.842;8.926;2023-06-05T04:41:48;3.03;;;2.70;;
1400;SDS011;46518;48.842;8.926;2023-06-05T04:44:35;3.78;;;2.90;;
1400;SDS011;46518;48.842;8.926;2023-06-05T04:47:04;3.95;;;2.90;;
1400;SDS011;46518;48.842;8.926;2023-06-05T04:49:33;3.70;;;3.35;;
1400;SDS011;46518;48.842;8.926;2023-06-05T04:52:01;5.05;;;3.05;;
1400;SDS011;46518;48.842;8.926;2023-06-05T04:54:31;2.95;;;2.70;;
1400;SDS011;46518;48.842;8.926;2023-06-05T04:57:00;3.83;;;2.50;;
1400;SDS011;46518;48.842;8.926;2023-06-05T04:59:29;3.25;;;3.05;;
1400;SDS011;46518;48.842;8.926;2023-06-05T05:02:01;4.40;;;3.53;;
1400;SDS011;46518;48.842;8.926;2023-06-05T05:04:31;2.85;;;2.60;;
1400;SDS011;46518;48.842;8.926;2023-06-05T05:07:00;3.22;;;2.95;;
1400;SDS011;46518;48.842;8.926;2023-06-05T05:09:29;3.20;;;2.45;;
1400;SDS011;46518;48.842;8.926;2023-06-05T05:12:01;2.75;;;2.55;;
1400;SDS011;46518;48.842;8.926;2023-06-05T05:14:29;2.75;;;2.50;;
1400;SDS011;46518;48.842;8.926;2023-06-05T05:16:57;2.90;;;2.70;;
1400;SDS011;46518;48.842;8.926;2023-06-05T05:19:26;3.13;;;2.70;;
1400;SDS011;46518;48.842;8.926;2023-06-05T05:21:57;4.90;;;2.50;;
1400;SDS011;46518;48.842;8.926;2023-06-05T05:24:26;4.07;;;3.10;;
1400;SDS011;46518;48.842;8.926;2023-06-05T05:26:54;2.80;;;2.60;;
1400;SDS011;46518;48.842;8.926;2023-06-05T05:29:23;3.30;;;3.00;;
1400;SDS011;46518;48.842;8.926;2023-06-05T05:31:52;3.63;;;2.40;;
1400;SDS011;46518;48.842;8.926;2023-06-05T05:34:21;4.95;;;2.97;;
1400;SDS011;46518;48.842;8.926;2023-06-05T05:36:49;3.35;;;3.05;;
1400;SDS011;46518;48.842;8.926;2023-06-05T05:39:19;5.75;;;2.63;;
1400;SDS011;46518;48.842;8.926;2023-06-05T05:41:47;3.88;;;2.50;;
1400;SDS011;46518;48.842;8.926;2023-06-05T05:44:17;3.47;;;3.17;;
1400;SDS011;46518;48.842;8.926;2023-06-05T05:46:47;2.95;;;2.72;;
1400;SDS011;46518;48.842;8.926;2023-06-05T05:49:15;3.08;;;2.70;;
1400;SDS011;46518;48.842;8.926;2023-06-05T05:51:43;3.05;;;2.58;;
1400;SDS011;46518;48.842;8.926;2023-06-05T05:54:11;2.92;;;2.72;;
1400;SDS011;46518;48.842;8.926;2023-06-05T05:56:40;3.03;;;2.65;;
1400;SDS011;46518;48.842;8.926;2023-06-05T05:59:08;3.65;;;3.30;;
1400;SDS011;46518;48.842;8.926;2023-06-05T06:01:37;2.85;;;2.58;;
1400;SDS011;46518;48.842;8.926;2023-06-05T06:04:06;2.70;;;2.50;;
1400;SDS011;46518;48.842;8.926;2023-06-05T06:06:34;3.05;;;2.50;;
1400;SDS011;46518;48.842;8.926;2023-06-05T06:09:04;3.72;;;3.03;;
1400;SDS011;46518;48.842;8.926;2023-06-05T06:14:04;4.57;;;2.92;;
1400;SDS011;46518;48.842;8.926;2023-06-05T06:16:32;6.97;;;3.40;;
1400;SDS011;46518;48.842;8.926;2023-06-05T06:19:00;5.70;;;2.90;;
1400;SDS011;46518;48.842;8.926;2023-06-05T06:21:29;3.60;;;2.92;;
1400;SDS011;46518;48.842;8.926;2023-06-05T06:23:57;4.07;;;3.67;;
1400;SDS011;46518;48.842;8.926;2023-06-05T06:26:25;2.92;;;2.65;;
1400;SDS011;46518;48.842;8.926;2023-06-05T06:28:54;2.78;;;2.50;;
1400;SDS011;46518;48.842;8.926;2023-06-05T06:31:24;2.55;;;2.38;;
1400;SDS011;46518;48.842;8.926;2023-06-05T06:33:52;2.60;;;2.40;;
1400;SDS011;46518;48.842;8.926;2023-06-05T06:36:20;3.55;;;2.80;;
1400;SDS011;46518;48.842;8.926;2023-06-05T06:38:50;3.53;;;2.70;;
1400;SDS011;46518;48.842;8.926;2023-06-05T06:41:19;3.58;;;3.28;;
1400;SDS011;46518;48.842;8.926;2023-06-05T06:43:48;3.00;;;2.70;;
1400;SDS011;46518;48.842;8.926;2023-06-05T06:46:16;3.28;;;2.97;;
1400;SDS011;46518;48.842;8.926;2023-06-05T06:48:44;4.45;;;3.58;;
1400;SDS011;46518;48.842;8.926;2023-06-05T06:51:13;2.97;;;2.78;;
1400;SDS011;46518;48.842;8.926;2023-06-05T06:53:42;4.10;;;2.55;;
1400;SDS011;46518;48.842;8.926;2023-06-05T06:56:14;5.05;;;3.42;;
1400;SDS011;46518;48.842;8.926;2023-06-05T06:58:42;3.97;;;3.47;;
1400;SDS011;46518;48.842;8.926;2023-06-05T07:01:15;3.25;;;2.90;;
1400;SDS011;46518;48.842;8.926;2023-06-05T07:03:43;6.20;;;2.67;;
1400;SDS011;46518;48.842;8.926;2023-06-05T07:06:11;3.53;;;3.03;;
1400;SDS011;46518;48.842;8.926;2023-06-05T07:08:40;4.47;;;3.30;;
1400;SDS011;46518;48.842;8.926;2023-06-05T07:11:08;3.67;;;3.00;;
1400;SDS011;46518;48.842;8.926;2023-06-05T07:13:38;3.05;;;2.75;;
1400;SDS011;46518;48.842;8.926;2023-06-05T07:16:06;3.22;;;2.92;;
1400;SDS011;46518;48.842;8.926;2023-06-05T07:18:34;5.72;;;2.78;;
1400;SDS011;46518;48.842;8.926;2023-06-05T07:21:03;5.00;;;4.35;;
1400;SDS011;46518;48.842;8.926;2023-06-05T07:23:31;4.82;;;3.50;;
1400;SDS011;46518;48.842;8.926;2023-06-05T07:26:00;3.95;;;3.00;;
1400;SDS011;46518;48.842;8.926;2023-06-05T07:28:28;4.38;;;3.70;;
1400;SDS011;46518;48.842;8.926;2023-06-05T07:30:57;3.65;;;3.33;;
1400;SDS011;46518;48.842;8.926;2023-06-05T07:33:29;4.15;;;3.40;;
1400;SDS011;46518;48.842;8.926;2023-06-05T07:35:58;3.70;;;3.00;;
1400;SDS011;46518;48.842;8.926;2023-06-05T07:38:27;4.18;;;3.33;;
1400;SDS011;46518;48.842;8.926;2023-06-05T07:40:56;5.25;;;3.58;;
1400;SDS011;46518;48.842;8.926;2023-06-05T07:43:28;5.00;;;3.28;;
1400;SDS011;46518;48.842;8.926;2023-06-05T07:45:58;4.55;;;3.25;;
1400;SDS011;46518;48.842;8.926;2023-06-05T07:48:26;4.13;;;3.58;;
1400;SDS011;46518;48.842;8.926;2023-06-05T07:50:54;4.30;;;3.72;;
1400;SDS011;46518;48.842;8.926;2023-06-05T07:53:23;3.42;;;3.22;;
1400;SDS011;46518;48.842;8.926;2023-06-05T07:55:51;5.43;;;3.60;;
1400;SDS011;46518;48.842;8.926;2023-06-05T07:58:19;4.43;;;3.40;;
1400;SDS011;46518;48.842;8.926;2023-06-05T08:00:49;3.65;;;3.35;;
1400;SDS011;46518;48.842;8.926;2023-06-05T08:03:19;4.00;;;3.50;;
1400;SDS011;46518;48.842;8.926;2023-06-05T08:05:48;5.20;;;4.10;;
1400;SDS011;46518;48.842;8.926;2023-06-05T08:08:17;3.97;;;3.60;;
1400;SDS011;46518;48.842;8.926;2023-06-05T08:10:46;5.75;;;4.28;;
1400;SDS011;46518;48.842;8.926;2023-06-05T08:13:14;5.35;;;3.65;;
1400;SDS011;46518;48.842;8.926;2023-06-05T08:15:43;3.75;;;3.35;;
1400;SDS011;46518;48.842;8.926;2023-06-05T08:18:11;5.28;;;3.42;;
1400;SDS011;46518;48.842;8.926;2023-06-05T08:20:41;4.20;;;3.70;;
1400;SDS011;46518;48.842;8.926;2023-06-05T08:23:09;4.15;;;3.47;;
1400;SDS011;46518;48.842;8.926;2023-06-05T08:25:37;4.88;;;4.30;;
1400;SDS011;46518;48.842;8.926;2023-06-05T08:28:05;4.85;;;4.35;;
1400;SDS011;46518;48.842;8.926;2023-06-05T08:30:33;4.50;;;4.05;;
1400;SDS011;46518;48.842;8.926;2023-06-05T08:33:02;3.97;;;3.58;;
1400;SDS011;46518;48.842;8.926;2023-06-05T08:35:30;5.30;;;4.80;;
1400;SDS011;46518;48.842;8.926;2023-06-05T08:37:59;4.40;;;3.97;;
1400;SDS011;46518;48.842;8.926;2023-06-05T08:40:28;5.13;;;4.63;;
1400;SDS011;46518;48.842;8.926;2023-06-05T08:42:59;4.80;;;4.40;;
1400;SDS011;46518;48.842;8.926;2023-06-05T08:45:27;5.97;;;5.43;;
1400;SDS011;46518;48.842;8.926;2023-06-05T08:47:56;5.95;;;4.43;;
1400;SDS011;46518;48.842;8.926;2023-06-05T08:50:28;4.53;;;4.13;;
1400;SDS011;46518;48.842;8.926;2023-06-05T08:52:58;4.90;;;4.40;;
1400;SDS011;46518;48.842;8.926;2023-06-05T08:55:29;6.47;;;5.90;;
1400;SDS011;46518;48.842;8.926;2023-06-05T08:57:57;5.47;;;4.97;;
1400;SDS011;46518;48.842;8.926;2023-06-05T09:00:26;5.97;;;5.47;;
1400;SDS011;46518;48.842;8.926;2023-06-05T09:02:54;6.00;;;5.40;;
1400;SDS011;46518;48.842;8.926;2023-06-05T09:05:23;7.30;;;5.30;;
1400;SDS011;46518;48.842;8.926;2023-06-05T09:07:52;7.07;;;6.20;;
1400;SDS011;46518;48.842;8.926;2023-06-05T09:10:22;6.47;;;5.87;;
1400;SDS011;46518;48.842;8.926;2023-06-05T09:12:55;6.93;;;5.63;;
1400;SDS011;46518;48.842;8.926;2023-06-05T09:15:24;6.73;;;6.10;;
1400;SDS011;46518;48.842;8.926;2023-06-05T09:18:03;11.70;;;6.73;;
1400;SDS011;46518;48.842;8.926;2023-06-05T09:20:35;5.80;;;5.30;;
1400;SDS011;46518;48.842;8.926;2023-06-05T09:23:20;6.20;;;5.63;;
1400;SDS011;46518;48.842;8.926;2023-06-05T09:25:54;6.43;;;5.80;;
1400;SDS011;46518;48.842;8.926;2023-06-05T09:28:25;6.83;;;5.83;;
1400;SDS011;46518;48.842;8.926;2023-06-05T09:30:54;6.80;;;6.10;;
1400;SDS011;46518;48.842;8.926;2023-06-05T09:33:25;6.53;;;6.03;;
1400;SDS011;46518;48.842;8.926;2023-06-05T09:36:01;8.10;;;6.30;;
1400;SDS011;46518;48.842;8.926;2023-06-05T09:38:31;7.27;;;6.50;;
1400;SDS011;46518;48.842;8.926;2023-06-05T09:41:04;7.83;;;7.13;;
1400;SDS011;46518;48.842;8.926;2023-06-05T09:43:34;7.40;;;6.73;;
1400;SDS011;46518;48.842;8.926;2023-06-05T09:46:07;6.50;;;5.90;;
1400;SDS011;46518;48.842;8.926;2023-06-05T09:48:37;6.33;;;5.83;;
1400;SDS011;46518;48.842;8.926;2023-06-05T09:51:09;7.60;;;6.80;;
1400;SDS011;46518;48.842;8.926;2023-06-05T09:53:41;8.83;;;6.70;;
1400;SDS011;46518;48.842;8.926;2023-06-05T09:56:13;6.90;;;6.30;;
1400;SDS011;46518;48.842;8.926;2023-06-05T09:58:43;9.40;;;6.53;;
1400;SDS011;46518;48.842;8.926;2023-06-05T10:01:14;7.27;;;6.30;;
1400;SDS011;46518;48.842;8.926;2023-06-05T10:03:47;6.20;;;5.60;;
1400;SDS011;46518;48.842;8.926;2023-06-05T10:06:18;8.10;;;6.53;;
1400;SDS011;46518;48.842;8.926;2023-06-05T10:08:50;6.03;;;5.53;;
1400;SDS011;46518;48.842;8.926;2023-06-05T10:11:21;6.90;;;6.40;;
1400;SDS011;46518;48.842;8.926;2023-06-05T10:13:51;7.20;;;6.60;;
1400;SDS011;46518;48.842;8.926;2023-06-05T10:16:20;6.67;;;6.00;;
1400;SDS011;46518;48.842;8.926;2023-06-05T10:18:53;6.90;;;5.70;;
1400;SDS011;46518;48.842;8.926;2023-06-05T10:21:23;6.53;;;5.87;;
1400;SDS011;46518;48.842;8.926;2023-06-05T10:23:53;5.77;;;5.27;;
1400;SDS011;46518;48.842;8.926;2023-06-05T10:26:30;7.00;;;5.40;;
1400;SDS011;46518;48.842;8.926;2023-06-05T10:29:11;7.00;;;5.90;;
1400;SDS011;46518;48.842;8.926;2023-06-05T10:31:57;5.40;;;4.93;;
1400;SDS011;46518;48.842;8.926;2023-06-05T10:34:32;6.07;;;5.47;;
1400;SDS011;46518;48.842;8.926;2023-06-05T10:37:30;5.77;;;5.37;;
1400;SDS011;46518;48.842;8.926;2023-06-05T10:40:06;7.07;;;5.53;;
1400;SDS011;46518;48.842;8.926;2023-06-05T10:42:38;5.87;;;5.37;;
1400;SDS011;46518;48.842;8.926;2023-06-05T10:45:06;6.80;;;6.10;;
1400;SDS011;46518;48.842;8.926;2023-06-05T10:47:48;6.57;;;5.80;;
1400;SDS011;46518;48.842;8.926;2023-06-05T10:50:24;6.10;;;5.60;;
1400;SDS011;46518;48.842;8.926;2023-06-05T10:52:54;6.23;;;5.63;;
1400;SDS011;46518;48.842;8.926;2023-06-05T10:55:24;5.97;;;5.30;;
1400;SDS011;46518;48.842;8.926;2023-06-05T10:58:05;6.13;;;5.53;;
1400;SDS011;46518;48.842;8.926;2023-06-05T11:00:37;7.67;;;5.80;;
1400;SDS011;46518;48.842;8.926;2023-06-05T11:03:05;6.33;;;5.30;;
1400;SDS011;46518;48.842;8.926;2023-06-05T11:05:34;7.67;;;5.37;;
1400;SDS011;46518;48.842;8.926;2023-06-05T11:08:15;5.33;;;4.93;;
1400;SDS011;46518;48.842;8.926;2023-06-05T11:11:03;5.67;;;5.27;;
1400;SDS011;46518;48.842;8.926;2023-06-05T11:13:53;6.43;;;5.90;;
1400;SDS011;46518;48.842;8.926;2023-06-05T11:16:25;6.50;;;6.00;;
1400;SDS011;46518;48.842;8.926;2023-06-05T11:18:58;5.10;;;4.57;;
1400;SDS011;46518;48.842;8.926;2023-06-05T11:22:06;5.93;;;5.33;;
1400;SDS011;46518;48.842;8.926;2023-06-05T11:24:35;5.60;;;5.10;;
1400;SDS011;46518;48.842;8.926;2023-06-05T11:27:04;5.80;;;5.20;;
1400;SDS011;46518;48.842;8.926;2023-06-05T11:29:34;5.67;;;5.07;;
1400;SDS011;46518;48.842;8.926;2023-06-05T11:32:12;5.60;;;5.00;;
1400;SDS011;46518;48.842;8.926;2023-06-05T11:34:45;4.77;;;4.33;;
1400;SDS011;46518;48.842;8.926;2023-06-05T11:37:14;5.33;;;4.83;;
1400;SDS011;46518;48.842;8.926;2023-06-05T11:39:45;5.77;;;4.97;;
1400;SDS011;46518;48.842;8.926;2023-06-05T11:42:20;6.23;;;4.23;;
1400;SDS011;46518;48.842;8.926;2023-06-05T11:44:50;4.70;;;4.20;;
1400;SDS011;46518;48.842;8.926;2023-06-05T11:47:22;4.50;;;4.10;;
1400;SDS011;46518;48.842;8.926;2023-06-05T11:49:51;4.90;;;4.50;;
1400;SDS011;46518;48.842;8.926;2023-06-05T11:52:20;4.47;;;4.07;;
1400;SDS011;46518;48.842;8.926;2023-06-05T11:54:49;5.53;;;5.03;;
1400;SDS011;46518;48.842;8.926;2023-06-05T11:57:38;5.37;;;4.60;;
1400;SDS011;46518;48.842;8.926;2023-06-05T12:00:23;5.13;;;4.00;;
1400;SDS011;46518;48.842;8.926;2023-06-05T12:02:54;5.17;;;4.67;;
1400;SDS011;46518;48.842;8.926;2023-06-05T12:05:23;5.23;;;4.73;;
1400;SDS011;46518;48.842;8.926;2023-06-05T12:07:51;4.07;;;3.60;;
1400;SDS011;46518;48.842;8.926;2023-06-05T12:10:32;4.87;;;3.80;;
1400;SDS011;46518;48.842;8.926;2023-06-05T12:13:00;4.50;;;4.10;;
1400;SDS011;46518;48.842;8.926;2023-06-05T12:15:30;4.60;;;4.00;;
1400;SDS011;46518;48.842;8.926;2023-06-05T12:17:59;4.27;;;3.63;;
1400;SDS011;46518;48.842;8.926;2023-06-05T12:20:27;4.43;;;4.10;;
1400;SDS011;46518;48.842;8.926;2023-06-05T12:23:06;4.10;;;3.73;;
1400;SDS011;46518;48.842;8.926;2023-06-05T12:25:34;5.80;;;4.93;;
1400;SDS011;46518;48.842;8.926;2023-06-05T12:28:17;5.03;;;4.53;;
1400;SDS011;46518;48.842;8.926;2023-06-05T12:30:48;5.13;;;4.63;;
1400;SDS011;46518;48.842;8.926;2023-06-05T12:33:16;5.20;;;4.70;;
1400;SDS011;46518;48.842;8.926;2023-06-05T12:35:44;4.40;;;4.00;;
1400;SDS011;46518;48.842;8.926;2023-06-05T12:38:13;4.53;;;4.13;;
1400;SDS011;46518;48.842;8.926;2023-06-05T12:40:44;6.47;;;4.47;;
1400;SDS011;46518;48.842;8.926;2023-06-05T12:43:33;5.83;;;4.73;;
1400;SDS011;46518;48.842;8.926;2023-06-05T12:46:02;4.53;;;4.13;;
1400;SDS011;46518;48.842;8.926;2023-06-05T12:48:32;5.13;;;4.63;;
1400;SDS011;46518;48.842;8.926;2023-06-05T12:51:00;4.90;;;4.33;;
1400;SDS011;46518;48.842;8.926;2023-06-05T12:53:29;6.13;;;4.60;;
1400;SDS011;46518;48.842;8.926;2023-06-05T12:55:58;5.10;;;4.60;;
1400;SDS011;46518;48.842;8.926;2023-06-05T12:58:26;4.87;;;4.47;;
1400;SDS011;46518;48.842;8.926;2023-06-05T13:00:54;5.10;;;4.67;;
1400;SDS011;46518;48.842;8.926;2023-06-05T13:03:24;6.23;;;5.10;;
1400;SDS011;46518;48.842;8.926;2023-06-05T13:05:52;4.27;;;3.90;;
1400;SDS011;46518;48.842;8.926;2023-06-05T13:08:20;4.90;;;4.50;;
1400;SDS011;46518;48.842;8.926;2023-06-05T13:10:49;4.53;;;4.20;;
1400;SDS011;46518;48.842;8.926;2023-06-05T13:13:17;4.30;;;4.00;;
1400;SDS011;46518;48.842;8.926;2023-06-05T13:15:46;4.40;;;3.90;;
1400;SDS011;46518;48.842;8.926;2023-06-05T13:18:14;4.10;;;3.70;;
1400;SDS011;46518;48.842;8.926;2023-06-05T13:20:44;6.07;;;5.47;;
1400;SDS011;46518;48.842;8.926;2023-06-05T13:23:12;5.67;;;5.17;;
1400;SDS011;46518;48.842;8.926;2023-06-05T13:25:41;5.47;;;4.93;;
1400;SDS011;46518;48.842;8.926;2023-06-05T13:28:09;4.40;;;4.00;;
1400;SDS011;46518;48.842;8.926;2023-06-05T13:30:37;5.70;;;4.97;;
1400;SDS011;46518;48.842;8.926;2023-06-05T13:33:05;4.63;;;4.20;;
1400;SDS011;46518;48.842;8.926;2023-06-05T13:35:34;8.30;;;4.67;;
1400;SDS011;46518;48.842;8.926;2023-06-05T13:38:03;6.17;;;5.40;;
1400;SDS011;46518;48.842;8.926;2023-06-05T13:40:31;6.90;;;4.50;;
1400;SDS011;46518;48.842;8.926;2023-06-05T13:42:59;5.27;;;4.77;;
1400;SDS011;46518;48.842;8.926;2023-06-05T13:45:28;5.07;;;4.57;;
1400;SDS011;46518;48.842;8.926;2023-06-05T13:47:56;5.27;;;4.77;;
1400;SDS011;46518;48.842;8.926;2023-06-05T13:50:24;5.77;;;4.90;;
1400;SDS011;46518;48.842;8.926;2023-06-05T13:52:52;4.47;;;4.07;;
1400;SDS011;46518;48.842;8.926;2023-06-05T13:55:22;7.20;;;4.83;;
1400;SDS011;46518;48.842;8.926;2023-06-05T13:57:50;5.73;;;5.20;;
1400;SDS011;46518;48.842;8.926;2023-06-05T14:00:19;5.70;;;4.23;;
1400;SDS011;46518;48.842;8.926;2023-06-05T14:02:47;8.40;;;5.73;;
1400;SDS011;46518;48.842;8.926;2023-06-05T14:05:15;5.40;;;4.90;;
1400;SDS011;46518;48.842;8.926;2023-06-05T14:07:43;5.07;;;4.63;;
1400;SDS011;46518;48.842;8.926;2023-06-05T14:10:16;5.40;;;4.90;;
1400;SDS011;46518;48.842;8.926;2023-06-05T14:12:46;5.00;;;4.60;;
1400;SDS011;46518;48.842;8.926;2023-06-05T14:15:15;4.70;;;4.30;;
1400;SDS011;46518;48.842;8.926;2023-06-05T14:17:44;5.03;;;4.20;;
1400;SDS011;46518;48.842;8.926;2023-06-05T14:20:13;4.93;;;4.50;;
1400;SDS011;46518;48.842;8.926;2023-06-05T14:22:41;5.53;;;4.83;;
1400;SDS011;46518;48.842;8.926;2023-06-05T14:25:09;5.83;;;5.30;;
1400;SDS011;46518;48.842;8.926;2023-06-05T14:27:38;5.23;;;4.50;;
1400;SDS011;46518;48.842;8.926;2023-06-05T14:30:08;4.93;;;4.50;;
1400;SDS011;46518;48.842;8.926;2023-06-05T14:32:36;6.83;;;4.77;;
1400;SDS011;46518;48.842;8.926;2023-06-05T14:35:05;5.43;;;4.93;;
1400;SDS011;46518;48.842;8.926;2023-06-05T14:37:34;5.57;;;5.17;;
1400;SDS011;46518;48.842;8.926;2023-06-05T14:40:02;5.20;;;4.70;;
1400;SDS011;46518;48.842;8.926;2023-06-05T14:42:32;4.53;;;4.13;;
1400;SDS011;46518;48.842;8.926;2023-06-05T14:45:00;4.90;;;4.50;;
1400;SDS011;46518;48.842;8.926;2023-06-05T14:47:31;5.20;;;4.80;;
1400;SDS011;46518;48.842;8.926;2023-06-05T14:50:02;5.37;;;4.87;;
1400;SDS011;46518;48.842;8.926;2023-06-05T14:52:31;7.93;;;5.27;;
1400;SDS011;46518;48.842;8.926;2023-06-05T14:54:59;4.70;;;4.30;;
1400;SDS011;46518;48.842;8.926;2023-06-05T14:57:32;7.53;;;4.80;;
1400;SDS011;46518;48.842;8.926;2023-06-05T15:00:01;5.80;;;5.20;;
1400;SDS011;46518;48.842;8.926;2023-06-05T15:02:33;6.40;;;4.40;;
1400;SDS011;46518;48.842;8.926;2023-06-05T15:05:02;4.77;;;4.30;;
1400;SDS011;46518;48.842;8.926;2023-06-05T15:07:37;5.23;;;4.73;;
1400;SDS011;46518;48.842;8.926;2023-06-05T15:10:08;4.70;;;4.30;;
1400;SDS011;46518;48.842;8.926;2023-06-05T15:12:39;4.60;;;4.20;;
1400;SDS011;46518;48.842;8.926;2023-06-05T15:15:08;4.63;;;4.27;;
1400;SDS011;46518;48.842;8.926;2023-06-05T15:17:48;3.90;;;3.60;;
1400;SDS011;46518;48.842;8.926;2023-06-05T15:20:20;7.40;;;5.00;;
1400;SDS011;46518;48.842;8.926;2023-06-05T15:22:51;4.43;;;4.03;;